Flight Track Log - Related Links

Times and Time Zones

All times are in EDT time to prevent confusion due to time zone crossing. See the N523GB flight status page for this flight to view local times or setup timezone preferences in your user account.

Time Position Orientation Groundspeed Altitude Reporting Facility
EDT Latitude Longitude Course Direction KTS MPH feet Rate Location/Type
09:27PM 41.2458 -70.3528 270° West 129 148 5,900  Level Boston Center
09:28PM 41.2442 -70.3972 267° West 124 143 6,500 295 Climbing Boston Center
09:29PM 41.2414 -70.4500 266° West 129 148 6,500  Level Boston Center
09:30PM 41.2394 -70.5108 268° West 146 168 6,500  Level Boston Center
09:31PM 41.2334 -70.3093 270° West  Level FlightAware Approximate
09:31PM 41.2378 -70.5719 268° West 158 182 6,500  Level Boston Center
09:32PM 41.2333 -70.3528 270° West  Level FlightAware Approximate
09:32PM 41.2347 -70.6314 266° West 159 183 6,500  Level Boston Center
09:33PM 41.2322 -70.6872 267° West 158 182 6,500  Level Boston Center
09:33PM 41.2275 -70.7208 259° West 152 175 6,500  Level Boston Center
09:34PM 41.2289 -70.7356 277° West 154 177 6,500  Level Boston Center
09:34PM 41.2300 -70.7444 279° West 158 182 6,500  Level Boston Center
09:35PM 41.2264 -70.7917 264° West 157 181 6,500  Level Boston Center
09:35PM 41.2278 -70.8022 280° West 158 182 6,500  Level Boston Center
09:36PM 41.2231 -70.8506 263° West 159 183 6,500  Level Boston Center
09:36PM 41.2242 -70.8700 274° West 156 180 6,500  Level Boston Center
09:37PM 41.2208 -70.9156 264° West 162 186 6,500  Level Boston Center
09:37PM 41.2219 -70.9292 276° West 157 181 6,500  Level Boston Center
09:38PM 41.2175 -70.9744 263° West 156 180 6,500  Level Boston Center
09:38PM 41.2186 -70.9856 278° West 156 180 6,500  Level Boston Center
09:39PM 41.2169 -71.0314 267° West 158 182 6,500  Level Boston Center
09:39PM 41.2167 -71.0478 269° West 156 180 6,500  Level Boston Center
09:40PM 41.2136 -71.0903 265° West 156 180 6,500  Level Boston Center
09:40PM 41.2142 -71.1047 273° West 156 180 6,500  Level Boston Center
09:41PM 41.2108 -71.1464 264° West 156 180 6,500  Level Boston Center
09:41PM 41.2108 -71.1636 270° West 157 181 6,500  Level Boston Center
09:42PM 41.2083 -71.1997 265° West 158 182 6,500  Level Boston Center
09:42PM 41.2089 -71.2200 272° West 157 181 6,500  Level Boston Center
09:43PM 41.2056 -71.2561 263° West 156 180 6,500  Level Boston Center
09:43PM 41.2061 -71.2783 272° West 157 181 6,500  Level Boston Center
09:44PM 41.2022 -71.3147 262° West 156 180 6,500  Level Boston Center
09:44PM 41.2028 -71.3406 272° West 157 181 6,500  Level Boston Center
09:45PM 41.2014 -71.3717 267° West 158 182 6,500  Level Boston Center
09:45PM 41.2000 -71.3994 266° West 157 181 6,500  Level Boston Center
09:46PM 41.1967 -71.4358 263° West 162 186 6,500  Level Boston Center
09:46PM 41.1975 -71.4583 273° West 158 182 6,500  Level Boston Center
09:47PM 41.1953 -71.4953 265° West 160 184 6,500  Level Boston Center
09:47PM 41.1950 -71.5169 269° West 159 183 6,500  Level Boston Center
09:48PM 41.1917 -71.5542 263° West 158 182 6,500  Level Boston Center
09:48PM 41.1914 -71.5761 269° West 159 183 6,500  Level Boston Center
09:49PM 41.1900 -71.6136 267° West 159 183 6,500  Level Boston Center
09:49PM 41.1892 -71.6347 267° West 160 184 6,500  Level Boston Center
09:50PM 41.1864 -71.6725 264° West 165 190 6,500  Level Boston Center
09:50PM 41.1856 -71.7003 268° West 162 186 6,500  Level Boston Center
09:51PM 41.1822 -71.7339 263° West 164 189 6,500  Level Boston Center
09:51PM 41.1825 -71.7603 271° West 162 186 6,500  Level Boston Center
09:52PM 41.1814 -71.7994 268° West 188 216 6,500  Level Boston Center
09:52PM 41.1792 -71.8217 262° West 168 193 6,500  Level Boston Center
09:53PM 41.1772 -71.8611 266° West 168 193 6,500  Level Boston Center
09:53PM 41.1769 -71.8833 269° West 166 191 6,500  Level Boston Center
09:54PM 41.1756 -71.9206 267° West 165 190 6,500  Level Boston Center
09:54PM 41.1731 -71.9431 262° West 166 191 6,500  Level Boston Center
09:55PM 41.1708 -71.9733 264° West 161 185 6,500  Level Boston Center
09:55PM 41.1703 -72.0036 269° West 166 191 6,500  Level Boston Center
09:56PM 41.1681 -72.0381 265° West 165 190 6,500  Level Boston Center
09:56PM 41.1672 -72.0639 268° West 166 191 6,500  Level Boston Center
09:57PM 41.1661 -72.0975 267° West 163 188 6,500 -32 Level Boston Center
10:02PM 41.1456 -72.4434 266° West 163 188 6,300 -34 Descending FlightAware ADS-B (KSNC)
10:03PM 41.1445 -72.4623 266° West 162 186 6,300  Level FlightAware ADS-B (KSNC)
10:03PM 41.1432 -72.4865 266° West 162 186 6,300  Level FlightAware ADS-B (KSNC)
10:04PM 41.1409 -72.5263 266° West 164 189 6,300  Level FlightAware ADS-B (KSNC)
10:04PM 41.1396 -72.5485 266° West 163 188 6,300  Level FlightAware ADS-B (KSNC)
10:04PM 41.1385 -72.5680 266° West 165 190 6,300  Level FlightAware ADS-B (KSNC)
10:05PM 41.1372 -72.5910 266° West 165 190 6,300  Level FlightAware ADS-B (KSNC)
10:05PM 41.1360 -72.6116 266° West 165 190 6,300  Level FlightAware ADS-B (KSNC)
10:05PM 41.1349 -72.6304 266° West 165 190 6,300  Level FlightAware ADS-B (KSNC)
10:06PM 41.1338 -72.6495 265° West 164 189 6,300  Level FlightAware ADS-B (KSNC)
10:06PM 41.1324 -72.6722 266° West 165 190 6,300  Level FlightAware ADS-B (KSNC)
10:06PM 41.1312 -72.6922 265° West 164 189 6,300  Level FlightAware ADS-B (KSNC)
10:07PM 41.1301 -72.7109 265° West 164 189 6,300  Level FlightAware ADS-B (KSNC)
10:07PM 41.1288 -72.7330 265° West 164 189 6,300  Level FlightAware ADS-B (KSNC)
10:08PM 41.1273 -72.7585 265° West 163 188 6,300  Level FlightAware ADS-B (KSNC)
10:08PM 41.1262 -72.7762 266° West 161 185 6,300  Level FlightAware ADS-B (KSNC)
10:08PM 41.1250 -72.7973 265° West 162 186 6,300  Level FlightAware ADS-B (KSNC)
10:09PM 41.1239 -72.8163 265° West 162 186 6,300  Level FlightAware ADS-B (KSNC)
10:09PM 41.1227 -72.8348 265° West 163 188 6,300  Level FlightAware ADS-B (KSNC)
10:09PM 41.1216 -72.8541 265° West 163 188 6,300  Level FlightAware ADS-B (KSNC)
10:10PM 41.1205 -72.8723 265° West 161 185 6,300  Level FlightAware ADS-B (KSNC)
10:10PM 41.1193 -72.8929 265° West 161 185 6,300  Level FlightAware ADS-B (KSNC)
10:10PM 41.1179 -72.9156 265° West 161 185 6,300  Level FlightAware ADS-B (KSNC)
10:11PM 41.1168 -72.9343 265° West 160 184 6,300  Level FlightAware ADS-B (KSNC)
10:11PM 41.1155 -72.9543 265° West 160 184 6,300  Level FlightAware ADS-B (KSNC)
10:11PM 41.1143 -72.9741 265° West 160 184 6,300  Level FlightAware ADS-B (KSNC)
10:11PM 41.1133 -72.9905 265° West 160 184 6,300  Level FlightAware ADS-B (KSNC)
10:12PM 41.1119 -73.0140 265° West 160 184 6,300  Level FlightAware ADS-B (KSNC)
10:12PM 41.1107 -73.0327 265° West 159 183 6,300 -146 Level FlightAware ADS-B (KSNC)
10:13PM 41.1094 -73.0538 265° West 168 193 6,200 -474 Descending FlightAware ADS-B (KSNC)
10:13PM 41.1082 -73.0732 265° West 175 201 6,000 -600 Descending FlightAware ADS-B (KSNC)
10:13PM 41.1070 -73.0933 266° West 178 205 5,800 -585 Descending FlightAware ADS-B (KSNC)
10:14PM 41.1055 -73.1174 265° West 177 204 5,600 -632 Descending FlightAware ADS-B (KSNC)
10:14PM 41.1042 -73.1379 265° West 174 200 5,400 -571 Descending FlightAware ADS-B (KSNC)
10:14PM 41.1029 -73.1581 265° West 168 193 5,200 -429 Descending FlightAware ADS-B (KSNC)
10:15PM 41.1018 -73.1760 265° West 164 189 5,100 -486 Descending FlightAware ADS-B (KSNC)
10:15PM 41.1005 -73.1959 265° West 160 184 4,900 -632 Descending FlightAware ADS-B (KSNC)
10:15PM 41.0992 -73.2171 265° West 159 183 4,700 -439 Descending FlightAware ADS-B (KSNC)
10:16PM 41.0979 -73.2373 265° West 160 184 4,600 -409 Descending FlightAware ADS-B (KSNC)
10:16PM 41.0965 -73.2582 265° West 159 183 4,400 -483 Descending FlightAware ADS-B (KSNC)
10:17PM 41.0926 -73.3192 265° West 161 185 3,900 -503 Descending FlightAware ADS-B (KSNC)
10:19PM 41.0867 -73.4100 265° West 156 180 3,100 -493 Descending FlightAware ADS-B (KSNC)
10:19PM 41.0834 -73.4605 265° West 156 180 2,700 -350 Descending FlightAware ADS-B (KSNC)
10:21PM 41.0811 -73.5147 265° West 159 183 2,400 -381 Descending Boston Center
10:22PM 41.0761 -73.5719 263° West 159 183 1,900 -344 Descending Boston Center
10:23PM 41.0847 -73.6292 281° West 159 183 1,700 -50 Descending Boston Center
10:24PM 41.0956 -73.6767 287° West 148 170 1,800 -148 Climbing Boston Center
10:25PM 41.1064 -73.7144 291° West 127 146 1,400 -541 Descending Boston Center
10:26PM 41.0875 -73.7225 198° South 106 122 700 -446 Descending Boston Center
10:27PM 41.0661 -73.7061 150° Southeast 94 108 500 -197 Descending Boston Center

Login

Don't have an account? Register now (free) for customized features, flight alerts, and more!